sensor_id;sensor_type;location;lat;lon;timestamp;pressure;altitude;pressure_sealevel;temperature;humidity
71917;BME280;59793;46.506;6.674;2024-01-11T00:00:05;97794.22;;;1.78;76.55
71917;BME280;59793;46.506;6.674;2024-01-11T00:02:30;97808.25;;;1.77;76.76
71917;BME280;59793;46.506;6.674;2024-01-11T00:04:56;97815.72;;;1.94;76.43
71917;BME280;59793;46.506;6.674;2024-01-11T00:07:21;97800.16;;;1.83;76.32
71917;BME280;59793;46.506;6.674;2024-01-11T00:09:46;97787.50;;;1.72;75.75
71917;BME280;59793;46.506;6.674;2024-01-11T00:12:11;97803.59;;;1.74;76.17
71917;BME280;59793;46.506;6.674;2024-01-11T00:14:37;97783.13;;;1.57;76.08
71917;BME280;59793;46.506;6.674;2024-01-11T00:17:02;97836.31;;;1.75;76.81
71917;BME280;59793;46.506;6.674;2024-01-11T00:19:27;97784.16;;;1.51;76.66
71917;BME280;59793;46.506;6.674;2024-01-11T00:21:53;97795.56;;;1.55;76.59
71917;BME280;59793;46.506;6.674;2024-01-11T00:24:18;97788.09;;;1.38;76.95
71917;BME280;59793;46.506;6.674;2024-01-11T00:26:43;97808.03;;;1.58;76.53
71917;BME280;59793;46.506;6.674;2024-01-11T00:29:09;97840.22;;;1.72;76.29
71917;BME280;59793;46.506;6.674;2024-01-11T00:31:34;97807.25;;;1.57;76.09
71917;BME280;59793;46.506;6.674;2024-01-11T00:34:00;97809.84;;;1.57;76.08
71917;BME280;59793;46.506;6.674;2024-01-11T00:36:25;97805.47;;;1.53;75.93
71917;BME280;59793;46.506;6.674;2024-01-11T00:38:51;97806.22;;;1.48;76.06
71917;BME280;59793;46.506;6.674;2024-01-11T00:41:16;97788.88;;;1.33;76.28
71917;BME280;59793;46.506;6.674;2024-01-11T00:43:42;97787.03;;;1.39;76.65
71917;BME280;59793;46.506;6.674;2024-01-11T00:46:07;97800.53;;;1.41;76.67
71917;BME280;59793;46.506;6.674;2024-01-11T00:48:33;97775.13;;;1.28;76.94
71917;BME280;59793;46.506;6.674;2024-01-11T00:50:58;97806.47;;;1.52;76.83
71917;BME280;59793;46.506;6.674;2024-01-11T00:53:23;97810.63;;;1.58;76.60
71917;BME280;59793;46.506;6.674;2024-01-11T00:55:48;97764.47;;;1.29;77.09
71917;BME280;59793;46.506;6.674;2024-01-11T00:58:14;97803.38;;;1.50;76.36
71917;BME280;59793;46.506;6.674;2024-01-11T01:00:39;97826.22;;;1.63;76.96
71917;BME280;59793;46.506;6.674;2024-01-11T01:03:04;97831.91;;;1.70;76.44
71917;BME280;59793;46.506;6.674;2024-01-11T01:05:30;97794.84;;;1.39;76.44
71917;BME280;59793;46.506;6.674;2024-01-11T01:07:55;97800.28;;;1.42;76.63
71917;BME280;59793;46.506;6.674;2024-01-11T01:10:20;97806.50;;;1.57;76.18
71917;BME280;59793;46.506;6.674;2024-01-11T01:12:46;97827.25;;;1.67;76.34
71917;BME280;59793;46.506;6.674;2024-01-11T01:15:11;97838.63;;;1.76;75.99
71917;BME280;59793;46.506;6.674;2024-01-11T01:17:37;97831.38;;;1.73;75.79
71917;BME280;59793;46.506;6.674;2024-01-11T01:20:02;97813.25;;;1.53;76.01
71917;BME280;59793;46.506;6.674;2024-01-11T01:22:28;97793.53;;;1.41;76.18
71917;BME280;59793;46.506;6.674;2024-01-11T01:24:53;97812.72;;;1.51;75.91
71917;BME280;59793;46.506;6.674;2024-01-11T01:27:19;97825.69;;;1.51;76.34
71917;BME280;59793;46.506;6.674;2024-01-11T01:29:45;97837.38;;;1.63;76.19
71917;BME280;59793;46.506;6.674;2024-01-11T01:32:11;97809.09;;;1.47;75.76
71917;BME280;59793;46.506;6.674;2024-01-11T01:34:36;97843.31;;;1.69;76.25
71917;BME280;59793;46.506;6.674;2024-01-11T01:37:02;97818.94;;;1.60;75.86
71917;BME280;59793;46.506;6.674;2024-01-11T01:39:27;97799.47;;;1.47;75.28
71917;BME280;59793;46.506;6.674;2024-01-11T01:41:52;97792.50;;;1.37;75.66
71917;BME280;59793;46.506;6.674;2024-01-11T01:44:17;97850.63;;;1.67;76.08
71917;BME280;59793;46.506;6.674;2024-01-11T01:46:43;97831.94;;;1.55;75.24
71917;BME280;59793;46.506;6.674;2024-01-11T01:49:10;97800.56;;;1.31;75.57
71917;BME280;59793;46.506;6.674;2024-01-11T01:51:36;97850.09;;;1.60;75.84
71917;BME280;59793;46.506;6.674;2024-01-11T01:54:02;97851.91;;;1.64;75.64
71917;BME280;59793;46.506;6.674;2024-01-11T01:56:28;97830.38;;;1.43;76.33
71917;BME280;59793;46.506;6.674;2024-01-11T01:58:54;97837.91;;;1.40;75.63
71917;BME280;59793;46.506;6.674;2024-01-11T02:01:20;97858.16;;;1.63;75.65
71917;BME280;59793;46.506;6.674;2024-01-11T02:03:49;97805.47;;;1.27;76.08
71917;BME280;59793;46.506;6.674;2024-01-11T02:06:15;97831.41;;;1.48;75.87
71917;BME280;59793;46.506;6.674;2024-01-11T02:08:42;97861.25;;;1.65;75.87
71917;BME280;59793;46.506;6.674;2024-01-11T02:11:10;97863.84;;;1.65;75.95
71917;BME280;59793;46.506;6.674;2024-01-11T02:13:35;97856.34;;;1.54;75.91
71917;BME280;59793;46.506;6.674;2024-01-11T02:16:01;97852.19;;;1.48;76.05
71917;BME280;59793;46.506;6.674;2024-01-11T02:18:26;97858.44;;;1.41;76.66
71917;BME280;59793;46.506;6.674;2024-01-11T02:20:51;97813.28;;;1.12;76.18
71917;BME280;59793;46.506;6.674;2024-01-11T02:23:19;97837.69;;;1.21;76.17
71917;BME280;59793;46.506;6.674;2024-01-11T02:25:46;97826.53;;;1.21;76.36
71917;BME280;59793;46.506;6.674;2024-01-11T02:28:11;97826.00;;;1.29;75.62
71917;BME280;59793;46.506;6.674;2024-01-11T02:30:37;97861.25;;;1.55;74.99
71917;BME280;59793;46.506;6.674;2024-01-11T02:33:03;97838.72;;;1.35;75.37
71917;BME280;59793;46.506;6.674;2024-01-11T02:35:29;97882.31;;;1.64;75.39
71917;BME280;59793;46.506;6.674;2024-01-11T02:37:56;97871.16;;;1.63;75.46
71917;BME280;59793;46.506;6.674;2024-01-11T02:40:22;97848.56;;;1.38;75.53
71917;BME280;59793;46.506;6.674;2024-01-11T02:42:47;97874.50;;;1.59;75.15
71917;BME280;59793;46.506;6.674;2024-01-11T02:45:13;97875.56;;;1.63;74.80
71917;BME280;59793;46.506;6.674;2024-01-11T02:47:38;97856.09;;;1.50;75.27
71917;BME280;59793;46.506;6.674;2024-01-11T02:50:05;97854.81;;;1.22;75.16
71917;BME280;59793;46.506;6.674;2024-01-11T02:52:32;97850.63;;;1.16;76.35
71917;BME280;59793;46.506;6.674;2024-01-11T02:54:57;97827.03;;;0.97;76.02
71917;BME280;59793;46.506;6.674;2024-01-11T02:57:22;97833.53;;;1.00;76.01
71917;BME280;59793;46.506;6.674;2024-01-11T02:59:49;97842.34;;;1.09;75.71
71917;BME280;59793;46.506;6.674;2024-01-11T03:02:14;97872.97;;;1.32;76.66
71917;BME280;59793;46.506;6.674;2024-01-11T03:04:40;97808.34;;;1.05;75.99
71917;BME280;59793;46.506;6.674;2024-01-11T03:07:05;97848.31;;;1.25;75.77
71917;BME280;59793;46.506;6.674;2024-01-11T03:09:30;97814.06;;;0.92;76.31
71917;BME280;59793;46.506;6.674;2024-01-11T03:11:56;97841.84;;;1.07;76.52
71917;BME280;59793;46.506;6.674;2024-01-11T03:14:21;97834.06;;;1.07;76.04
71917;BME280;59793;46.506;6.674;2024-01-11T03:16:46;97833.00;;;1.18;76.57
71917;BME280;59793;46.506;6.674;2024-01-11T03:19:12;97803.69;;;1.07;75.79
71917;BME280;59793;46.506;6.674;2024-01-11T03:21:43;97829.38;;;1.24;75.90
71917;BME280;59793;46.506;6.674;2024-01-11T03:24:08;97808.34;;;1.26;75.50
71917;BME280;59793;46.506;6.674;2024-01-11T03:26:34;97833.53;;;1.35;75.62
71917;BME280;59793;46.506;6.674;2024-01-11T03:28:59;97816.66;;;1.17;75.50
71917;BME280;59793;46.506;6.674;2024-01-11T03:31:24;97849.88;;;1.36;76.33
71917;BME280;59793;46.506;6.674;2024-01-11T03:33:50;97824.19;;;1.19;76.28
71917;BME280;59793;46.506;6.674;2024-01-11T03:36:15;97796.41;;;1.14;75.94
71917;BME280;59793;46.506;6.674;2024-01-11T03:38:40;97808.59;;;1.29;75.88
71917;BME280;59793;46.506;6.674;2024-01-11T03:41:09;97813.00;;;1.34;75.81
71917;BME280;59793;46.506;6.674;2024-01-11T03:43:36;97851.13;;;1.59;75.24
71917;BME280;59793;46.506;6.674;2024-01-11T03:46:01;97795.66;;;1.14;76.07
71917;BME280;59793;46.506;6.674;2024-01-11T03:48:26;97827.28;;;1.26;76.22
71917;BME280;59793;46.506;6.674;2024-01-11T03:50:52;97804.69;;;1.16;76.00
71917;BME280;59793;46.506;6.674;2024-01-11T03:53:17;97834.81;;;1.43;75.43
71917;BME280;59793;46.506;6.674;2024-01-11T03:55:42;97853.72;;;1.59;75.05
71917;BME280;59793;46.506;6.674;2024-01-11T03:58:08;97808.06;;;1.27;75.02
71917;BME280;59793;46.506;6.674;2024-01-11T04:00:33;97800.56;;;1.31;75.42
71917;BME280;59793;46.506;6.674;2024-01-11T04:02:58;97808.06;;;1.37;75.00
71917;BME280;59793;46.506;6.674;2024-01-11T04:05:24;97813.00;;;1.29;75.00
71917;BME280;59793;46.506;6.674;2024-01-11T04:07:49;97829.34;;;1.39;75.58
71917;BME280;59793;46.506;6.674;2024-01-11T04:10:17;97852.19;;;1.37;75.76
71917;BME280;59793;46.506;6.674;2024-01-11T04:12:42;97847.81;;;1.38;76.17
71917;BME280;59793;46.506;6.674;2024-01-11T04:15:08;97823.66;;;1.27;76.01
71917;BME280;59793;46.506;6.674;2024-01-11T04:17:33;97844.41;;;1.37;76.08
71917;BME280;59793;46.506;6.674;2024-01-11T04:19:59;97790.19;;;1.10;76.24
71917;BME280;59793;46.506;6.674;2024-01-11T04:22:24;97811.72;;;1.36;75.70
71917;BME280;59793;46.506;6.674;2024-01-11T04:24:49;97836.09;;;1.51;75.62
71917;BME280;59793;46.506;6.674;2024-01-11T04:27:15;97807.81;;;1.29;75.76
71917;BME280;59793;46.506;6.674;2024-01-11T04:29:40;97798.75;;;1.21;76.31
71917;BME280;59793;46.506;6.674;2024-01-11T04:32:05;97828.81;;;1.48;76.45
71917;BME280;59793;46.506;6.674;2024-01-11T04:34:30;97838.72;;;1.46;75.87
71917;BME280;59793;46.506;6.674;2024-01-11T04:36:56;97798.72;;;1.26;75.92
71917;BME280;59793;46.506;6.674;2024-01-11T04:39:21;97776.94;;;1.12;76.24
71917;BME280;59793;46.506;6.674;2024-01-11T04:41:46;97778.25;;;1.09;76.05
71917;BME280;59793;46.506;6.674;2024-01-11T04:44:13;97797.97;;;1.21;76.24
71917;BME280;59793;46.506;6.674;2024-01-11T04:46:38;97803.94;;;1.26;75.82
71917;BME280;59793;46.506;6.674;2024-01-11T04:49:03;97831.44;;;1.37;75.82
71917;BME280;59793;46.506;6.674;2024-01-11T04:51:28;97813.53;;;1.21;76.28
71917;BME280;59793;46.506;6.674;2024-01-11T04:53:54;97801.59;;;1.04;76.05
71917;BME280;59793;46.506;6.674;2024-01-11T04:56:19;97797.19;;;0.94;76.40
71917;BME280;59793;46.506;6.674;2024-01-11T04:58:45;97829.38;;;1.19;76.40
71917;BME280;59793;46.506;6.674;2024-01-11T05:01:15;97792.50;;;0.81;76.53
71917;BME280;59793;46.506;6.674;2024-01-11T05:03:41;97794.59;;;0.94;76.62
71917;BME280;59793;46.506;6.674;2024-01-11T05:06:06;97809.13;;;1.06;76.85
71917;BME280;59793;46.506;6.674;2024-01-11T05:08:32;97836.88;;;1.15;76.79
71917;BME280;59793;46.506;6.674;2024-01-11T05:10:57;97807.06;;;0.92;76.95
71917;BME280;59793;46.506;6.674;2024-01-11T05:13:22;97807.56;;;0.94;76.67
71917;BME280;59793;46.506;6.674;2024-01-11T05:15:48;97792.75;;;0.85;77.22
71917;BME280;59793;46.506;6.674;2024-01-11T05:18:13;97802.34;;;0.74;77.61
71917;BME280;59793;46.506;6.674;2024-01-11T05:20:39;97811.19;;;0.78;78.17
71917;BME280;59793;46.506;6.674;2024-01-11T05:23:04;97817.94;;;0.89;78.17
71917;BME280;59793;46.506;6.674;2024-01-11T05:25:31;97826.25;;;0.97;77.82
71917;BME280;59793;46.506;6.674;2024-01-11T05:28:00;97826.25;;;1.02;77.50
71917;BME280;59793;46.506;6.674;2024-01-11T05:30:26;97819.00;;;0.93;77.63
71917;BME280;59793;46.506;6.674;2024-01-11T05:32:51;97803.16;;;0.90;77.58
71917;BME280;59793;46.506;6.674;2024-01-11T05:35:16;97843.88;;;0.94;77.63
71917;BME280;59793;46.506;6.674;2024-01-11T05:37:42;97809.91;;;0.91;77.62
71917;BME280;59793;46.506;6.674;2024-01-11T05:40:07;97767.63;;;0.65;77.25
71917;BME280;59793;46.506;6.674;2024-01-11T05:42:33;97830.41;;;1.23;77.06
71917;BME280;59793;46.506;6.674;2024-01-11T05:44:58;97816.38;;;1.19;76.60
71917;BME280;59793;46.506;6.674;2024-01-11T05:47:24;97779.56;;;0.86;76.93
71917;BME280;59793;46.506;6.674;2024-01-11T05:49:49;97813.28;;;1.02;76.94
71917;BME280;59793;46.506;6.674;2024-01-11T05:52:15;97799.78;;;0.84;77.20
71917;BME280;59793;46.506;6.674;2024-01-11T05:54:40;97825.22;;;1.03;77.24
71917;BME280;59793;46.506;6.674;2024-01-11T05:57:05;97793.03;;;0.93;76.99
71917;BME280;59793;46.506;6.674;2024-01-11T05:59:32;97828.59;;;1.18;76.50
71917;BME280;59793;46.506;6.674;2024-01-11T06:01:58;97819.78;;;1.14;76.28
71917;BME280;59793;46.506;6.674;2024-01-11T06:04:25;97833.78;;;1.29;76.23
71917;BME280;59793;46.506;6.674;2024-01-11T06:06:51;97814.81;;;1.23;76.03
71917;BME280;59793;46.506;6.674;2024-01-11T06:09:16;97816.91;;;1.31;75.51
71917;BME280;59793;46.506;6.674;2024-01-11T06:11:41;97802.38;;;1.20;75.70
71917;BME280;59793;46.506;6.674;2024-01-11T06:14:07;97785.78;;;1.11;76.01
71917;BME280;59793;46.506;6.674;2024-01-11T06:16:32;97798.22;;;1.19;75.72
71917;BME280;59793;46.506;6.674;2024-01-11T06:18:57;97782.91;;;1.12;75.43
71917;BME280;59793;46.506;6.674;2024-01-11T06:21:23;97831.16;;;1.54;75.00
71917;BME280;59793;46.506;6.674;2024-01-11T06:23:48;97831.69;;;1.56;75.10
71917;BME280;59793;46.506;6.674;2024-01-11T06:26:14;97833.72;;;1.64;74.91
71917;BME280;59793;46.506;6.674;2024-01-11T06:28:39;97836.63;;;1.53;74.84
71917;BME280;59793;46.506;6.674;2024-01-11T06:31:05;97835.34;;;1.45;75.27
71917;BME280;59793;46.506;6.674;2024-01-11T06:33:31;97800.81;;;1.34;74.66
71917;BME280;59793;46.506;6.674;2024-01-11T06:35:58;97813.78;;;1.39;74.72
71917;BME280;59793;46.506;6.674;2024-01-11T06:38:23;97789.13;;;1.27;74.63
71917;BME280;59793;46.506;6.674;2024-01-11T06:40:49;97833.50;;;1.56;74.68
71917;BME280;59793;46.506;6.674;2024-01-11T06:43:14;97831.94;;;1.50;74.80
71917;BME280;59793;46.506;6.674;2024-01-11T06:45:42;97825.19;;;1.33;74.84
71917;BME280;59793;46.506;6.674;2024-01-11T06:48:07;97790.69;;;1.12;74.78
71917;BME280;59793;46.506;6.674;2024-01-11T06:50:33;97831.97;;;1.19;74.90
71917;BME280;59793;46.506;6.674;2024-01-11T06:52:58;97836.38;;;1.03;75.94
71917;BME280;59793;46.506;6.674;2024-01-11T06:55:23;97850.13;;;1.04;76.36
71917;BME280;59793;46.506;6.674;2024-01-11T06:57:49;97839.47;;;0.90;76.28
71917;BME280;59793;46.506;6.674;2024-01-11T07:00:14;97828.81;;;0.81;76.38
71917;BME280;59793;46.506;6.674;2024-01-11T07:02:39;97826.22;;;0.91;76.08
71917;BME280;59793;46.506;6.674;2024-01-11T07:05:05;97822.63;;;0.92;76.41
71917;BME280;59793;46.506;6.674;2024-01-11T07:07:32;97835.59;;;1.03;76.17
71917;BME280;59793;46.506;6.674;2024-01-11T07:09:58;97804.97;;;0.64;76.35
71917;BME280;59793;46.506;6.674;2024-01-11T07:12:24;97840.53;;;0.89;76.31
71917;BME280;59793;46.506;6.674;2024-01-11T07:14:49;97832.72;;;0.84;76.44
71917;BME280;59793;46.506;6.674;2024-01-11T07:17:15;97848.06;;;1.11;75.78
71917;BME280;59793;46.506;6.674;2024-01-11T07:19:40;97858.44;;;1.26;75.55
71917;BME280;59793;46.506;6.674;2024-01-11T07:22:05;97824.16;;;1.09;74.88
71917;BME280;59793;46.506;6.674;2024-01-11T07:24:30;97852.22;;;1.32;75.00
71917;BME280;59793;46.506;6.674;2024-01-11T07:27:06;97845.19;;;1.23;74.54
71917;BME280;59793;46.506;6.674;2024-01-11T07:29:32;97857.38;;;1.27;75.20
71917;BME280;59793;46.506;6.674;2024-01-11T07:31:58;97857.38;;;1.37;74.71
71917;BME280;59793;46.506;6.674;2024-01-11T07:34:23;97863.91;;;1.35;74.79
71917;BME280;59793;46.506;6.674;2024-01-11T07:36:49;97858.44;;;1.41;74.49
71917;BME280;59793;46.506;6.674;2024-01-11T07:39:15;97854.78;;;1.48;73.92
71917;BME280;59793;46.506;6.674;2024-01-11T07:41:40;97849.09;;;1.35;73.78
71917;BME280;59793;46.506;6.674;2024-01-11T07:44:06;97877.91;;;1.54;74.19
71917;BME280;59793;46.506;6.674;2024-01-11T07:46:31;97869.84;;;1.56;73.29
71917;BME280;59793;46.506;6.674;2024-01-11T07:48:56;97873.47;;;1.55;74.12
71917;BME280;59793;46.506;6.674;2024-01-11T07:51:22;97853.50;;;1.35;74.10
71917;BME280;59793;46.506;6.674;2024-01-11T07:53:47;97889.84;;;1.45;73.92
71917;BME280;59793;46.506;6.674;2024-01-11T07:56:13;97895.81;;;1.46;74.06
71917;BME280;59793;46.506;6.674;2024-01-11T07:58:40;97884.41;;;1.31;74.53
71917;BME280;59793;46.506;6.674;2024-01-11T08:01:06;97885.19;;;1.42;74.33
71917;BME280;59793;46.506;6.674;2024-01-11T08:03:32;97850.66;;;1.31;73.21
71917;BME280;59793;46.506;6.674;2024-01-11T08:05:59;97863.38;;;1.38;73.68
71917;BME280;59793;46.506;6.674;2024-01-11T08:08:25;97878.94;;;1.48;73.58
71917;BME280;59793;46.506;6.674;2024-01-11T08:10:51;97901.25;;;1.44;74.35
71917;BME280;59793;46.506;6.674;2024-01-11T08:13:23;97907.50;;;1.48;74.07
71917;BME280;59793;46.506;6.674;2024-01-11T08:15:49;97912.97;;;1.57;73.89
71917;BME280;59793;46.506;6.674;2024-01-11T08:18:18;97899.44;;;1.29;74.13
71917;BME280;59793;46.506;6.674;2024-01-11T08:20:44;97895.03;;;1.25;74.28
71917;BME280;59793;46.506;6.674;2024-01-11T08:23:10;97909.56;;;1.41;74.37
71917;BME280;59793;46.506;6.674;2024-01-11T08:25:35;97895.56;;;1.22;74.98
71917;BME280;59793;46.506;6.674;2024-01-11T08:28:03;97905.41;;;1.40;74.25
71917;BME280;59793;46.506;6.674;2024-01-11T08:30:29;97924.88;;;1.48;74.26
71917;BME280;59793;46.506;6.674;2024-01-11T08:32:56;97917.63;;;1.50;73.95
71917;BME280;59793;46.506;6.674;2024-01-11T08:35:22;97924.13;;;1.47;74.07
71917;BME280;59793;46.506;6.674;2024-01-11T08:40:22;97923.34;;;1.47;74.24
71917;BME280;59793;46.506;6.674;2024-01-11T08:42:48;97926.47;;;1.38;73.92
71917;BME280;59793;46.506;6.674;2024-01-11T08:45:15;97927.75;;;1.36;74.69
71917;BME280;59793;46.506;6.674;2024-01-11T08:47:46;97886.19;;;1.10;74.31
71917;BME280;59793;46.506;6.674;2024-01-11T08:50:13;97921.25;;;1.38;73.93
71917;BME280;59793;46.506;6.674;2024-01-11T08:55:07;97911.13;;;1.37;73.91
71917;BME280;59793;46.506;6.674;2024-01-11T08:57:32;97895.56;;;1.32;73.85
71917;BME280;59793;46.506;6.674;2024-01-11T08:59:58;97914.50;;;1.37;73.50
71917;BME280;59793;46.506;6.674;2024-01-11T09:02:23;97895.03;;;1.35;73.10
71917;BME280;59793;46.506;6.674;2024-01-11T09:04:48;97917.63;;;1.39;73.45
71917;BME280;59793;46.506;6.674;2024-01-11T09:07:14;97934.78;;;1.56;73.67
71917;BME280;59793;46.506;6.674;2024-01-11T09:09:41;97936.59;;;1.60;73.47
71917;BME280;59793;46.506;6.674;2024-01-11T09:12:06;97921.28;;;1.49;73.03
71917;BME280;59793;46.506;6.674;2024-01-11T09:14:32;97924.91;;;1.42;73.08
71917;BME280;59793;46.506;6.674;2024-01-11T09:16:57;97943.84;;;1.53;73.75
71917;BME280;59793;46.506;6.674;2024-01-11T09:19:23;97899.97;;;1.31;72.49
71917;BME280;59793;46.506;6.674;2024-01-11T09:21:49;97901.00;;;1.40;72.18
71917;BME280;59793;46.506;6.674;2024-01-11T09:24:14;97933.47;;;1.74;72.63
71917;BME280;59793;46.506;6.674;2024-01-11T09:26:39;97939.69;;;1.88;72.44
71917;BME280;59793;46.506;6.674;2024-01-11T09:29:05;97929.06;;;1.74;72.45
71917;BME280;59793;46.506;6.674;2024-01-11T09:31:31;97925.66;;;1.84;71.35
71917;BME280;59793;46.506;6.674;2024-01-11T09:33:58;97906.44;;;1.80;71.28
71917;BME280;59793;46.506;6.674;2024-01-11T09:36:24;97845.44;;;1.47;71.60
71917;BME280;59793;46.506;6.674;2024-01-11T09:38:55;97906.44;;;1.80;72.10
71917;BME280;59793;46.506;6.674;2024-01-11T09:41:21;97904.34;;;1.82;71.59
71917;BME280;59793;46.506;6.674;2024-01-11T09:43:51;97944.56;;;2.15;71.60
71917;BME280;59793;46.506;6.674;2024-01-11T09:46:20;97928.47;;;2.08;72.01
71917;BME280;59793;46.506;6.674;2024-01-11T09:48:47;97946.38;;;2.30;71.58
71917;BME280;59793;46.506;6.674;2024-01-11T09:51:14;97924.28;;;2.22;71.22
71917;BME280;59793;46.506;6.674;2024-01-11T09:53:42;97939.31;;;2.41;71.71
71917;BME280;59793;46.506;6.674;2024-01-11T09:56:09;97898.28;;;2.22;71.00
71917;BME280;59793;46.506;6.674;2024-01-11T09:58:36;97949.13;;;2.59;70.80
71917;BME280;59793;46.506;6.674;2024-01-11T10:01:09;97904.22;;;2.33;70.84
71917;BME280;59793;46.506;6.674;2024-01-11T10:03:40;97949.63;;;2.66;70.58
71917;BME280;59793;46.506;6.674;2024-01-11T10:06:06;97911.31;;;2.17;70.82
71917;BME280;59793;46.506;6.674;2024-01-11T10:08:39;97948.41;;;2.43;71.31
71917;BME280;59793;46.506;6.674;2024-01-11T10:11:05;97907.94;;;2.11;71.04
71917;BME280;59793;46.506;6.674;2024-01-11T10:13:32;97842.03;;;1.61;71.72
71917;BME280;59793;46.506;6.674;2024-01-11T10:16:11;97918.66;;;1.84;72.18
71917;BME280;59793;46.506;6.674;2024-01-11T10:18:41;97919.16;;;1.81;72.45
71917;BME280;59793;46.506;6.674;2024-01-11T10:21:08;97899.94;;;1.72;72.37
71917;BME280;59793;46.506;6.674;2024-01-11T10:23:41;97922.81;;;1.80;72.43
71917;BME280;59793;46.506;6.674;2024-01-11T10:26:06;97918.91;;;1.78;72.47
71917;BME280;59793;46.506;6.674;2024-01-11T10:28:35;97877.88;;;1.64;72.42
71917;BME280;59793;46.506;6.674;2024-01-11T10:31:04;97898.16;;;1.57;72.74
71917;BME280;59793;46.506;6.674;2024-01-11T10:33:33;97947.22;;;1.89;72.39
71917;BME280;59793;46.506;6.674;2024-01-11T10:35:59;97935.25;;;1.94;72.53
71917;BME280;59793;46.506;6.674;2024-01-11T10:38:25;97921.78;;;1.81;72.85
71917;BME280;59793;46.506;6.674;2024-01-11T10:40:53;97938.34;;;2.01;72.72
71917;BME280;59793;46.506;6.674;2024-01-11T10:43:22;97924.88;;;1.88;72.60
71917;BME280;59793;46.506;6.674;2024-01-11T10:45:51;97904.63;;;1.65;72.53
71917;BME280;59793;46.506;6.674;2024-01-11T10:48:21;97936.81;;;1.89;72.74
71917;BME280;59793;46.506;6.674;2024-01-11T10:50:50;97898.91;;;1.68;72.71
71917;BME280;59793;46.506;6.674;2024-01-11T10:53:32;97895.00;;;1.76;72.43
71917;BME280;59793;46.506;6.674;2024-01-11T10:56:03;97891.88;;;1.79;72.25
71917;BME280;59793;46.506;6.674;2024-01-11T10:58:30;97897.88;;;1.84;72.77
71917;BME280;59793;46.506;6.674;2024-01-11T11:00:57;97832.72;;;1.19;72.73
71917;BME280;59793;46.506;6.674;2024-01-11T11:03:25;97937.84;;;1.99;72.80
71917;BME280;59793;46.506;6.674;2024-01-11T11:05:53;97858.69;;;1.45;72.38
71917;BME280;59793;46.506;6.674;2024-01-11T11:08:22;97855.81;;;1.52;72.68
71917;BME280;59793;46.506;6.674;2024-01-11T11:11:07;97923.00;;;2.14;72.79
71917;BME280;59793;46.506;6.674;2024-01-11T11:16:15;97930.31;;;2.12;72.88
71917;BME280;59793;46.506;6.674;2024-01-11T11:18:41;97929.50;;;2.12;72.18
71917;BME280;59793;46.506;6.674;2024-01-11T11:21:09;97901.22;;;1.90;72.21
71917;BME280;59793;46.506;6.674;2024-01-11T11:23:36;97898.38;;;1.91;72.67
71917;BME280;59793;46.506;6.674;2024-01-11T11:26:02;97882.53;;;1.88;72.62
71917;BME280;59793;46.506;6.674;2024-01-11T11:28:31;97863.84;;;1.81;72.38
71917;BME280;59793;46.506;6.674;2024-01-11T11:31:00;97915.66;;;2.32;71.69
71917;BME280;59793;46.506;6.674;2024-01-11T11:33:28;97914.44;;;2.14;72.22
71917;BME280;59793;46.506;6.674;2024-01-11T11:35:57;97892.09;;;1.98;72.64
71917;BME280;59793;46.506;6.674;2024-01-11T11:38:25;97912.09;;;2.07;73.36
71917;BME280;59793;46.506;6.674;2024-01-11T11:40:52;97925.84;;;2.23;72.49
71917;BME280;59793;46.506;6.674;2024-01-11T11:43:18;97923.28;;;2.08;72.18
71917;BME280;59793;46.506;6.674;2024-01-11T11:45:46;97916.28;;;2.03;73.03
71917;BME280;59793;46.506;6.674;2024-01-11T11:51:18;97892.66;;;1.79;72.76
71917;BME280;59793;46.506;6.674;2024-01-11T11:53:45;97913.44;;;1.95;73.34
71917;BME280;59793;46.506;6.674;2024-01-11T11:56:11;97913.41;;;2.05;73.32
71917;BME280;59793;46.506;6.674;2024-01-11T11:58:38;97910.31;;;2.03;72.97
71917;BME280;59793;46.506;6.674;2024-01-11T12:01:23;97911.31;;;2.07;73.12
71917;BME280;59793;46.506;6.674;2024-01-11T12:03:48;97893.69;;;1.94;72.98
71917;BME280;59793;46.506;6.674;2024-01-11T12:06:16;97896.78;;;2.06;72.54
71917;BME280;59793;46.506;6.674;2024-01-11T12:08:43;97904.84;;;2.09;72.25
71917;BME280;59793;46.506;6.674;2024-01-11T12:11:08;97906.38;;;2.10;73.07
71917;BME280;59793;46.506;6.674;2024-01-11T12:13:34;97900.38;;;2.15;72.81
71917;BME280;59793;46.506;6.674;2024-01-11T12:16:00;97910.50;;;2.27;72.33
71917;BME280;59793;46.506;6.674;2024-01-11T12:18:25;97882.19;;;2.15;72.73
71917;BME280;59793;46.506;6.674;2024-01-11T12:20:51;97910.97;;;2.44;71.99
71917;BME280;59793;46.506;6.674;2024-01-11T12:23:18;97883.69;;;2.31;71.78
71917;BME280;59793;46.506;6.674;2024-01-11T12:25:43;97912.00;;;2.48;71.43
71917;BME280;59793;46.506;6.674;2024-01-11T12:28:09;97894.69;;;2.13;71.72
71917;BME280;59793;46.506;6.674;2024-01-11T12:30:34;97898.84;;;2.09;72.23
71917;BME280;59793;46.506;6.674;2024-01-11T12:33:00;97877.06;;;1.95;72.07
71917;BME280;59793;46.506;6.674;2024-01-11T12:35:27;97902.53;;;1.87;73.32
71917;BME280;59793;46.506;6.674;2024-01-11T12:37:59;97865.66;;;1.75;73.10
71917;BME280;59793;46.506;6.674;2024-01-11T12:40:25;97899.97;;;1.77;73.63
71917;BME280;59793;46.506;6.674;2024-01-11T12:42:52;97903.03;;;1.89;74.05
71917;BME280;59793;46.506;6.674;2024-01-11T12:45:18;97875.53;;;1.73;74.19
71917;BME280;59793;46.506;6.674;2024-01-11T12:47:43;97839.75;;;1.39;74.67
71917;BME280;59793;46.506;6.674;2024-01-11T12:50:09;97857.63;;;1.72;74.02
71917;BME280;59793;46.506;6.674;2024-01-11T12:52:35;97878.13;;;1.73;73.51
71917;BME280;59793;46.506;6.674;2024-01-11T12:55:00;97885.91;;;1.83;74.47
71917;BME280;59793;46.506;6.674;2024-01-11T12:57:25;97872.94;;;1.73;74.11
71917;BME280;59793;46.506;6.674;2024-01-11T12:59:52;97870.31;;;1.83;74.58
71917;BME280;59793;46.506;6.674;2024-01-11T13:02:17;97890.81;;;2.00;73.70
71917;BME280;59793;46.506;6.674;2024-01-11T13:04:43;97889.78;;;1.96;73.90
71917;BME280;59793;46.506;6.674;2024-01-11T13:07:10;97893.94;;;1.97;73.68
71917;BME280;59793;46.506;6.674;2024-01-11T13:09:35;97835.53;;;1.69;73.54
71917;BME280;59793;46.506;6.674;2024-01-11T13:12:01;97890.28;;;2.03;73.37
71917;BME280;59793;46.506;6.674;2024-01-11T13:14:26;97881.69;;;2.13;72.65